BBC Delaware — V2CN9 — position and weather

sailwx.info

Track history (hours):
 
Tides and Currents Weather Stations Pressure Air Temp Water Temp Dewpoint Dewpoint Depression Visibility Wind Speed Wind Dir Waves Ship Positions

BBC Delaware

Last reported at 2014-Nov-29 12:04 UTC. Time now 2014-Dec-21 17:57 UTC.
Position S 29°53' E 031°01'.
Warning: this ship's position is 22 days out of date.

Length 138 m; draft 6.3 m.

Type: Cargo ship. MMSI: 305057000.

Date/timePositionNaut miles runAvg speedWind from/ knotsBaromVisibWave heightAir tempDewpointWater temp
2014-Nov-29 12:04S 29°53' E 031°01'0 0.0
2014-Nov-29 11:22S 29°53' E 031°01'0 0.0
2014-Nov-29 10:28S 29°53' E 031°01'0 0.0
2014-Nov-29 09:28S 29°53' E 031°01'0 0.0
2014-Nov-29 08:22S 29°53' E 031°01'0 0.0
2014-Nov-29 07:30S 29°53' E 031°01'0 0.0
2014-Nov-29 06:24S 29°53' E 031°01'0 0.0
2014-Nov-29 05:29S 29°53' E 031°01'0 0.0
2014-Nov-29 04:24S 29°53' E 031°01'0 0.0
2014-Nov-29 03:24S 29°53' E 031°01'0 0.0
2014-Nov-29 02:30S 29°53' E 031°01'0 0.0
2014-Nov-29 01:24S 29°53' E 031°01'0 0.0
2014-Nov-29 00:29S 29°53' E 031°01'0 0.0
2014-Nov-28 23:29S 29°53' E 031°01'0 0.0
2014-Nov-28 22:29S 29°53' E 031°01'0 0.0
2014-Nov-28 21:32S 29°53' E 031°01'0 0.0
2014-Nov-28 11:33S 29°53' E 031°01'0 0.0
2014-Nov-28 10:21S 29°53' E 031°01'0 0.0
2014-Nov-28 09:33S 29°53' E 031°01'0 0.0
2014-Nov-28 08:33S 29°53' E 031°01'0 0.0
2014-Nov-28 07:33S 29°53' E 031°01'0 0.0
2014-Nov-28 06:33S 29°53' E 031°01'0 0.0
2014-Nov-28 05:33S 29°53' E 031°01'0 0.0
2014-Nov-28 04:33S 29°53' E 031°01'0 0.0
2014-Nov-28 03:30S 29°53' E 031°01'0 0.0
2014-Nov-28 02:30S 29°53' E 031°01'0 0.0
2014-Nov-28 01:30S 29°53' E 031°01'0 0.0
2014-Nov-28 00:30S 29°53' E 031°01'0 0.0
2014-Nov-27 23:30S 29°53' E 031°01'0 0.0
2014-Nov-27 22:33S 29°53' E 031°01'3 3.2
2014-Nov-27 21:33S 29°51' E 031°04'3 2.9
2014-Nov-27 20:33S 29°49' E 031°05'3 3.1
2014-Nov-27 19:33S 29°46' E 031°07'1 0.5
2014-Nov-27 18:28S 29°46' E 031°08'0 0.0
2014-Nov-27 17:28S 29°46' E 031°07'0 0.2
2014-Nov-27 16:28S 29°46' E 031°07'0 0.0
2014-Nov-27 15:28S 29°46' E 031°07'0 0.0
2014-Nov-27 14:28S 29°46' E 031°07'0 0.0
2014-Nov-27 13:28S 29°46' E 031°07'0 0.0
2014-Nov-27 12:28S 29°46' E 031°07'0 0.0
2014-Nov-27 11:28S 29°46' E 031°07'0 0.0
2014-Nov-27 10:28S 29°46' E 031°07'0 0.0
2014-Nov-27 09:28S 29°46' E 031°07'0 0.0
2014-Nov-27 08:28S 29°46' E 031°07'0 0.0
2014-Nov-27 07:28S 29°46' E 031°07'0 0.0
2014-Nov-27 06:28S 29°46' E 031°07'0 0.0
2014-Nov-27 05:28S 29°46' E 031°07'0 0.0
2014-Nov-27 04:28S 29°46' E 031°07'0 0.0
2014-Nov-27 03:28S 29°46' E 031°07'0 0.0
2014-Nov-27 02:28S 29°46' E 031°07'0 0.0
2014-Nov-27 01:28S 29°46' E 031°07'0 0.0
2014-Nov-27 00:28S 29°46' E 031°07'0 0.0
2014-Nov-26 23:28S 29°46' E 031°07'0 0.0
2014-Nov-26 22:28S 29°46' E 031°07'0 0.0
2014-Nov-26 21:28S 29°46' E 031°07'0 0.0
2014-Nov-26 20:28S 29°46' E 031°07'0 0.0
2014-Nov-26 19:28S 29°46' E 031°07'0 0.0
2014-Nov-26 18:28S 29°46' E 031°07'0 0.2
2014-Nov-26 17:28S 29°46' E 031°08'3 3.5
2014-Nov-26 16:33S 29°48' E 031°06'0 0.0
2014-Nov-26 15:33S 29°48' E 031°06'0 0.0
2014-Nov-26 14:33S 29°48' E 031°06'0 0.0
2014-Nov-26 13:33S 29°48' E 031°06'0 0.0
2014-Nov-26 12:33S 29°48' E 031°06'0 0.0
2014-Nov-26 11:33S 29°48' E 031°06'0 0.0
2014-Nov-26 10:33S 29°48' E 031°06'0 0.0
2014-Nov-26 09:33S 29°48' E 031°06'0 0.0
2014-Nov-26 08:33S 29°48' E 031°06'0 0.0
2014-Nov-26 07:33S 29°48' E 031°06'0 0.0
2014-Nov-26 06:33S 29°48' E 031°06'0 0.0
2014-Nov-26 05:27S 29°48' E 031°06'0 0.0
2014-Nov-26 04:33S 29°48' E 031°06'0 0.0
2014-Nov-26 03:33S 29°48' E 031°06'0 0.0
2014-Nov-26 02:33S 29°48' E 031°06'0 0.0
2014-Nov-26 01:33S 29°48' E 031°06'0 0.0
2014-Nov-26 00:33S 29°48' E 031°06'0 0.0
2014-Nov-25 23:33S 29°48' E 031°06'0 0.0
2014-Nov-25 22:33S 29°48' E 031°06'0 0.0
2014-Nov-25 21:33S 29°48' E 031°06'0 0.0
2014-Nov-25 20:33S 29°48' E 031°06'0 0.0
2014-Nov-25 19:33S 29°48' E 031°06'0 0.0
2014-Nov-25 18:33S 29°48' E 031°06'0 0.0
2014-Nov-25 17:33S 29°48' E 031°06'0 0.0
2014-Nov-25 16:33S 29°48' E 031°06'0 0.0
2014-Nov-25 15:33S 29°48' E 031°06'0 0.0
2014-Nov-25 14:33S 29°48' E 031°06'0 0.0
2014-Nov-25 13:33S 29°48' E 031°06'0 0.0
2014-Nov-25 12:33S 29°48' E 031°06'0 0.0
2014-Nov-25 11:33S 29°48' E 031°06'0 0.0
2014-Nov-25 10:33S 29°48' E 031°06'0 0.0
2014-Nov-25 09:33S 29°48' E 031°06'0 0.0
2014-Nov-25 08:33S 29°48' E 031°06'0 0.0
2014-Nov-25 07:33S 29°48' E 031°06'1 1.5
2014-Nov-25 06:34S 29°49' E 031°07'1212.5
2014-Nov-25 05:34S 30°01' E 031°03'24811.1
2014-Nov-24 07:09S 33°13' E 027°59'19 9.4
2014-Nov-24 05:09S 33°24' E 027°42'  
Track history (hours):
 
Tides and Currents Weather Stations Pressure Air Temp Water Temp Dewpoint Dewpoint Depression Visibility Wind Speed Wind Dir Waves Ship Positions

BBC Delaware

Last reported at 2014-Nov-29 12:04 UTC. Time now 2014-Dec-21 17:57 UTC.
Position S 29°53' E 031°01'.
Warning: this ship's position is 22 days out of date.

Length 138 m; draft 6.3 m.

Type: Cargo ship. MMSI: 305057000.

Date/timePositionNaut miles runAvg speedWind from/ knotsBaromVisibWave heightAir tempDewpointWater temp
2014-Nov-29 12:04S 29°53' E 031°01'0 0.0
2014-Nov-29 11:22S 29°53' E 031°01'0 0.0
2014-Nov-29 10:28S 29°53' E 031°01'0 0.0
2014-Nov-29 09:28S 29°53' E 031°01'0 0.0
2014-Nov-29 08:22S 29°53' E 031°01'0 0.0
2014-Nov-29 07:30S 29°53' E 031°01'0 0.0
2014-Nov-29 06:24S 29°53' E 031°01'0 0.0
2014-Nov-29 05:29S 29°53' E 031°01'0 0.0
2014-Nov-29 04:24S 29°53' E 031°01'0 0.0
2014-Nov-29 03:24S 29°53' E 031°01'0 0.0
2014-Nov-29 02:30S 29°53' E 031°01'0 0.0
2014-Nov-29 01:24S 29°53' E 031°01'0 0.0
2014-Nov-29 00:29S 29°53' E 031°01'0 0.0
2014-Nov-28 23:29S 29°53' E 031°01'0 0.0
2014-Nov-28 22:29S 29°53' E 031°01'0 0.0
2014-Nov-28 21:32S 29°53' E 031°01'0 0.0
2014-Nov-28 11:33S 29°53' E 031°01'0 0.0
2014-Nov-28 10:21S 29°53' E 031°01'0 0.0
2014-Nov-28 09:33S 29°53' E 031°01'0 0.0
2014-Nov-28 08:33S 29°53' E 031°01'0 0.0
2014-Nov-28 07:33S 29°53' E 031°01'0 0.0
2014-Nov-28 06:33S 29°53' E 031°01'0 0.0
2014-Nov-28 05:33S 29°53' E 031°01'0 0.0
2014-Nov-28 04:33S 29°53' E 031°01'0 0.0
2014-Nov-28 03:30S 29°53' E 031°01'0 0.0
2014-Nov-28 02:30S 29°53' E 031°01'0 0.0
2014-Nov-28 01:30S 29°53' E 031°01'0 0.0
2014-Nov-28 00:30S 29°53' E 031°01'0 0.0
2014-Nov-27 23:30S 29°53' E 031°01'0 0.0
2014-Nov-27 22:33S 29°53' E 031°01'3 3.2
2014-Nov-27 21:33S 29°51' E 031°04'3 2.9
2014-Nov-27 20:33S 29°49' E 031°05'3 3.1
2014-Nov-27 19:33S 29°46' E 031°07'1 0.5
2014-Nov-27 18:28S 29°46' E 031°08'0 0.0
2014-Nov-27 17:28S 29°46' E 031°07'0 0.2
2014-Nov-27 16:28S 29°46' E 031°07'0 0.0
2014-Nov-27 15:28S 29°46' E 031°07'0 0.0
2014-Nov-27 14:28S 29°46' E 031°07'0 0.0
2014-Nov-27 13:28S 29°46' E 031°07'0 0.0
2014-Nov-27 12:28S 29°46' E 031°07'0 0.0
2014-Nov-27 11:28S 29°46' E 031°07'0 0.0
2014-Nov-27 10:28S 29°46' E 031°07'0 0.0
2014-Nov-27 09:28S 29°46' E 031°07'0 0.0
2014-Nov-27 08:28S 29°46' E 031°07'0 0.0
2014-Nov-27 07:28S 29°46' E 031°07'0 0.0
2014-Nov-27 06:28S 29°46' E 031°07'0 0.0
2014-Nov-27 05:28S 29°46' E 031°07'0 0.0
2014-Nov-27 04:28S 29°46' E 031°07'0 0.0
2014-Nov-27 03:28S 29°46' E 031°07'0 0.0
2014-Nov-27 02:28S 29°46' E 031°07'0 0.0
2014-Nov-27 01:28S 29°46' E 031°07'0 0.0
2014-Nov-27 00:28S 29°46' E 031°07'0 0.0
2014-Nov-26 23:28S 29°46' E 031°07'0 0.0
2014-Nov-26 22:28S 29°46' E 031°07'0 0.0
2014-Nov-26 21:28S 29°46' E 031°07'0 0.0
2014-Nov-26 20:28S 29°46' E 031°07'0 0.0
2014-Nov-26 19:28S 29°46' E 031°07'0 0.0
2014-Nov-26 18:28S 29°46' E 031°07'0 0.2
2014-Nov-26 17:28S 29°46' E 031°08'3 3.5
2014-Nov-26 16:33S 29°48' E 031°06'0 0.0
2014-Nov-26 15:33S 29°48' E 031°06'0 0.0
2014-Nov-26 14:33S 29°48' E 031°06'0 0.0
2014-Nov-26 13:33S 29°48' E 031°06'0 0.0
2014-Nov-26 12:33S 29°48' E 031°06'0 0.0
2014-Nov-26 11:33S 29°48' E 031°06'0 0.0
2014-Nov-26 10:33S 29°48' E 031°06'0 0.0
2014-Nov-26 09:33S 29°48' E 031°06'0 0.0
2014-Nov-26 08:33S 29°48' E 031°06'0 0.0
2014-Nov-26 07:33S 29°48' E 031°06'0 0.0
2014-Nov-26 06:33S 29°48' E 031°06'0 0.0
2014-Nov-26 05:27S 29°48' E 031°06'0 0.0
2014-Nov-26 04:33S 29°48' E 031°06'0 0.0
2014-Nov-26 03:33S 29°48' E 031°06'0 0.0
2014-Nov-26 02:33S 29°48' E 031°06'0 0.0
2014-Nov-26 01:33S 29°48' E 031°06'0 0.0
2014-Nov-26 00:33S 29°48' E 031°06'0 0.0
2014-Nov-25 23:33S 29°48' E 031°06'0 0.0
2014-Nov-25 22:33S 29°48' E 031°06'0 0.0
2014-Nov-25 21:33S 29°48' E 031°06'0 0.0
2014-Nov-25 20:33S 29°48' E 031°06'0 0.0
2014-Nov-25 19:33S 29°48' E 031°06'0 0.0
2014-Nov-25 18:33S 29°48' E 031°06'0 0.0
2014-Nov-25 17:33S 29°48' E 031°06'0 0.0
2014-Nov-25 16:33S 29°48' E 031°06'0 0.0
2014-Nov-25 15:33S 29°48' E 031°06'0 0.0
2014-Nov-25 14:33S 29°48' E 031°06'0 0.0
2014-Nov-25 13:33S 29°48' E 031°06'0 0.0
2014-Nov-25 12:33S 29°48' E 031°06'0 0.0
2014-Nov-25 11:33S 29°48' E 031°06'0 0.0
2014-Nov-25 10:33S 29°48' E 031°06'0 0.0
2014-Nov-25 09:33S 29°48' E 031°06'0 0.0
2014-Nov-25 08:33S 29°48' E 031°06'0 0.0
2014-Nov-25 07:33S 29°48' E 031°06'1 1.5
2014-Nov-25 06:34S 29°49' E 031°07'1212.5
2014-Nov-25 05:34S 30°01' E 031°03'24811.1
2014-Nov-24 07:09S 33°13' E 027°59'19 9.4
2014-Nov-24 05:09S 33°24' E 027°42'  

Dump ship's entire track history